sensor_id;sensor_type;location;lat;lon;timestamp;pressure;altitude;pressure_sealevel;temperature;humidity
76095;BME280;64821;13.710;100.604;2023-04-03T00:00:23;100807.06;;;36.09;48.28
76095;BME280;64821;13.710;100.604;2023-04-03T00:01:27;100819.22;;;36.08;48.28
76095;BME280;64821;13.710;100.604;2023-04-03T00:02:31;100818.88;;;36.09;47.94
76095;BME280;64821;13.710;100.604;2023-04-03T00:03:35;100820.03;;;36.08;47.97
76095;BME280;64821;13.710;100.604;2023-04-03T00:04:39;100822.81;;;36.20;47.42
76095;BME280;64821;13.710;100.604;2023-04-03T00:05:43;100822.13;;;36.23;47.55
76095;BME280;64821;13.710;100.604;2023-04-03T00:06:47;100824.91;;;36.23;47.77
76095;BME280;64821;13.710;100.604;2023-04-03T00:07:51;100834.75;;;36.24;47.57
76095;BME280;64821;13.710;100.604;2023-04-03T00:08:56;100828.34;;;36.32;47.20
76095;BME280;64821;13.710;100.604;2023-04-03T00:10:00;100837.06;;;36.22;47.67
76095;BME280;64821;13.710;100.604;2023-04-03T00:11:04;100833.47;;;36.34;47.44
76095;BME280;64821;13.710;100.604;2023-04-03T00:12:08;100836.81;;;36.40;47.07
76095;BME280;64821;13.710;100.604;2023-04-03T00:13:12;100837.38;;;36.45;47.25
76095;BME280;64821;13.710;100.604;2023-04-03T00:14:16;100837.16;;;36.38;46.92
76095;BME280;64821;13.710;100.604;2023-04-03T00:15:19;100840.97;;;36.33;47.47
76095;BME280;64821;13.710;100.604;2023-04-03T00:16:23;100842.47;;;36.31;46.40
76095;BME280;64821;13.710;100.604;2023-04-03T00:17:27;100847.19;;;36.43;47.11
76095;BME280;64821;13.710;100.604;2023-04-03T00:18:30;100841.66;;;36.43;47.20
76095;BME280;64821;13.710;100.604;2023-04-03T00:19:34;100845.66;;;36.45;46.91
76095;BME280;64821;13.710;100.604;2023-04-03T00:20:38;100852.31;;;36.44;46.88
76095;BME280;64821;13.710;100.604;2023-04-03T00:21:42;100841.41;;;36.48;46.91
76095;BME280;64821;13.710;100.604;2023-04-03T00:22:45;100847.28;;;36.46;47.23
76095;BME280;64821;13.710;100.604;2023-04-03T00:23:49;100850.16;;;36.50;46.73
76095;BME280;64821;13.710;100.604;2023-04-03T00:24:54;100841.63;;;36.55;46.17
76095;BME280;64821;13.710;100.604;2023-04-03T00:25:58;100825.66;;;36.36;46.31
76095;BME280;64821;13.710;100.604;2023-04-03T00:27:02;100850.00;;;36.58;46.09
76095;BME280;64821;13.710;100.604;2023-04-03T00:28:05;100841.06;;;36.49;46.47
76095;BME280;64821;13.710;100.604;2023-04-03T00:29:09;100853.59;;;36.59;46.28
76095;BME280;64821;13.710;100.604;2023-04-03T00:30:14;100860.72;;;36.60;46.40
76095;BME280;64821;13.710;100.604;2023-04-03T00:31:18;100861.19;;;36.62;46.29
76095;BME280;64821;13.710;100.604;2023-04-03T00:32:22;100857.84;;;36.56;46.15
76095;BME280;64821;13.710;100.604;2023-04-03T00:33:26;100862.34;;;36.49;46.54
76095;BME280;64821;13.710;100.604;2023-04-03T00:34:29;100864.63;;;36.59;46.15
76095;BME280;64821;13.710;100.604;2023-04-03T00:35:34;100874.97;;;36.62;46.31
76095;BME280;64821;13.710;100.604;2023-04-03T00:36:38;100857.03;;;36.56;45.58
76095;BME280;64821;13.710;100.604;2023-04-03T00:37:42;100868.09;;;36.68;45.50
76095;BME280;64821;13.710;100.604;2023-04-03T00:38:45;100869.69;;;36.69;45.58
76095;BME280;64821;13.710;100.604;2023-04-03T00:39:49;100875.06;;;36.65;46.18
76095;BME280;64821;13.710;100.604;2023-04-03T00:40:54;100868.88;;;36.68;46.09
76095;BME280;64821;13.710;100.604;2023-04-03T00:41:58;100872.31;;;36.78;45.68
76095;BME280;64821;13.710;100.604;2023-04-03T00:43:05;100877.59;;;36.83;45.44
76095;BME280;64821;13.710;100.604;2023-04-03T00:44:22;100884.75;;;36.72;45.86
76095;BME280;64821;13.710;100.604;2023-04-03T00:45:32;100859.66;;;36.64;45.67
76095;BME280;64821;13.710;100.604;2023-04-03T00:46:36;100884.28;;;36.82;45.51
76095;BME280;64821;13.710;100.604;2023-04-03T00:47:41;100888.06;;;36.89;45.43
76095;BME280;64821;13.710;100.604;2023-04-03T00:48:46;100890.63;;;36.82;45.70
76095;BME280;64821;13.710;100.604;2023-04-03T00:49:51;100874.75;;;36.79;44.84
76095;BME280;64821;13.710;100.604;2023-04-03T00:50:55;100892.09;;;36.92;45.33
76095;BME280;64821;13.710;100.604;2023-04-03T00:52:00;100888.03;;;37.01;45.14
76095;BME280;64821;13.710;100.604;2023-04-03T00:53:04;100873.19;;;36.94;45.08
76095;BME280;64821;13.710;100.604;2023-04-03T00:54:08;100891.00;;;37.09;44.44
76095;BME280;64821;13.710;100.604;2023-04-03T00:55:12;100898.47;;;37.08;44.87
76095;BME280;64821;13.710;100.604;2023-04-03T00:56:20;100899.75;;;36.98;45.20
76095;BME280;64821;13.710;100.604;2023-04-03T00:57:27;100902.66;;;37.02;44.95
76095;BME280;64821;13.710;100.604;2023-04-03T00:58:34;100908.94;;;37.02;43.97
76095;BME280;64821;13.710;100.604;2023-04-03T00:59:44;100905.03;;;37.03;44.90
76095;BME280;64821;13.710;100.604;2023-04-03T01:00:53;100904.94;;;37.00;44.95
76095;BME280;64821;13.710;100.604;2023-04-03T01:01:59;100903.00;;;37.00;44.94
76095;BME280;64821;13.710;100.604;2023-04-03T01:03:03;100907.00;;;37.03;45.00
76095;BME280;64821;13.710;100.604;2023-04-03T01:04:27;100911.13;;;37.09;44.83
76095;BME280;64821;13.710;100.604;2023-04-03T01:05:34;100908.16;;;37.02;44.81
76095;BME280;64821;13.710;100.604;2023-04-03T01:06:38;100909.41;;;37.04;44.87
76095;BME280;64821;13.710;100.604;2023-04-03T01:07:42;100908.16;;;37.02;44.72
76095;BME280;64821;13.710;100.604;2023-04-03T01:08:48;100914.38;;;36.99;44.95
76095;BME280;64821;13.710;100.604;2023-04-03T01:09:56;100913.47;;;36.95;44.92
76095;BME280;64821;13.710;100.604;2023-04-03T01:10:59;100906.31;;;36.94;45.05
76095;BME280;64821;13.710;100.604;2023-04-03T01:12:20;100904.81;;;36.96;44.80
76095;BME280;64821;13.710;100.604;2023-04-03T01:13:26;100904.28;;;36.91;44.56
76095;BME280;64821;13.710;100.604;2023-04-03T01:14:30;100928.66;;;37.01;44.75
76095;BME280;64821;13.710;100.604;2023-04-03T01:15:33;100919.31;;;36.93;44.90
76095;BME280;64821;13.710;100.604;2023-04-03T01:16:37;100924.63;;;36.86;45.37
76095;BME280;64821;13.710;100.604;2023-04-03T01:17:42;100921.28;;;36.93;45.07
76095;BME280;64821;13.710;100.604;2023-04-03T01:18:47;100923.47;;;36.99;45.16
76095;BME280;64821;13.710;100.604;2023-04-03T01:20:02;100931.03;;;37.02;45.12
76095;BME280;64821;13.710;100.604;2023-04-03T01:21:42;100932.88;;;37.11;44.59
76095;BME280;64821;13.710;100.604;2023-04-03T01:22:57;100931.63;;;37.08;44.58
76095;BME280;64821;13.710;100.604;2023-04-03T01:24:12;100935.78;;;37.02;44.78
76095;BME280;64821;13.710;100.604;2023-04-03T01:25:19;100938.09;;;37.00;45.02
76095;BME280;64821;13.710;100.604;2023-04-03T01:26:24;100936.69;;;37.06;44.97
76095;BME280;64821;13.710;100.604;2023-04-03T01:27:29;100941.84;;;37.08;44.95
76095;BME280;64821;13.710;100.604;2023-04-03T01:28:35;100944.63;;;37.08;44.75
76095;BME280;64821;13.710;100.604;2023-04-03T01:29:40;100946.56;;;37.07;45.14
76095;BME280;64821;13.710;100.604;2023-04-03T01:30:48;100957.63;;;37.07;44.79
76095;BME280;64821;13.710;100.604;2023-04-03T01:31:56;100953.13;;;37.02;45.01
76095;BME280;64821;13.710;100.604;2023-04-03T01:33:00;100955.13;;;37.02;45.11
76095;BME280;64821;13.710;100.604;2023-04-03T01:34:04;100949.13;;;37.00;45.18
76095;BME280;64821;13.710;100.604;2023-04-03T01:35:09;100960.97;;;37.00;44.35
76095;BME280;64821;13.710;100.604;2023-04-03T01:36:15;100967.75;;;37.03;44.78
76095;BME280;64821;13.710;100.604;2023-04-03T01:37:20;100959.47;;;37.03;44.87
76095;BME280;64821;13.710;100.604;2023-04-03T01:38:24;100954.75;;;37.03;44.41
76095;BME280;64821;13.710;100.604;2023-04-03T01:39:28;100960.63;;;37.02;44.77
76095;BME280;64821;13.710;100.604;2023-04-03T01:40:31;100966.72;;;37.08;44.68
76095;BME280;64821;13.710;100.604;2023-04-03T01:41:35;100965.31;;;37.14;44.34
76095;BME280;64821;13.710;100.604;2023-04-03T01:42:39;100966.94;;;37.15;44.29
76095;BME280;64821;13.710;100.604;2023-04-03T01:43:43;100968.09;;;37.26;44.09
76095;BME280;64821;13.710;100.604;2023-04-03T01:44:47;100967.38;;;37.29;43.80
76095;BME280;64821;13.710;100.604;2023-04-03T01:45:50;100973.91;;;37.36;43.44
76095;BME280;64821;13.710;100.604;2023-04-03T01:46:56;100962.19;;;37.39;43.47
76095;BME280;64821;13.710;100.604;2023-04-03T01:47:59;100968.34;;;37.49;43.06
76095;BME280;64821;13.710;100.604;2023-04-03T01:49:03;100974.53;;;37.58;43.06
76095;BME280;64821;13.710;100.604;2023-04-03T01:50:07;100977.41;;;37.61;42.53
76095;BME280;64821;13.710;100.604;2023-04-03T01:51:11;100974.75;;;37.65;42.32
76095;BME280;64821;13.710;100.604;2023-04-03T01:52:15;100969.00;;;37.70;41.90
76095;BME280;64821;13.710;100.604;2023-04-03T01:53:18;100976.22;;;37.74;41.81
76095;BME280;64821;13.710;100.604;2023-04-03T01:54:22;100971.50;;;37.75;41.21
76095;BME280;64821;13.710;100.604;2023-04-03T01:55:25;100979.31;;;37.73;43.37
76095;BME280;64821;13.710;100.604;2023-04-03T01:56:29;100973.59;;;37.66;42.68
76095;BME280;64821;13.710;100.604;2023-04-03T01:57:33;100976.16;;;37.59;42.43
76095;BME280;64821;13.710;100.604;2023-04-03T01:58:37;100978.00;;;37.55;42.19
76095;BME280;64821;13.710;100.604;2023-04-03T01:59:40;100979.50;;;37.52;42.01
76095;BME280;64821;13.710;100.604;2023-04-03T02:00:44;100982.63;;;37.51;42.52
76095;BME280;64821;13.710;100.604;2023-04-03T02:01:48;100981.19;;;37.41;42.41
76095;BME280;64821;13.710;100.604;2023-04-03T02:02:53;100974.47;;;37.42;41.03
76095;BME280;64821;13.710;100.604;2023-04-03T02:03:57;100979.44;;;37.36;40.03
76095;BME280;64821;13.710;100.604;2023-04-03T02:05:01;100987.59;;;37.45;41.19
76095;BME280;64821;13.710;100.604;2023-04-03T02:06:05;100979.88;;;37.51;41.23
76095;BME280;64821;13.710;100.604;2023-04-03T02:07:09;100948.50;;;37.31;40.68
76095;BME280;64821;13.710;100.604;2023-04-03T02:08:12;100980.28;;;37.65;39.58
76095;BME280;64821;13.710;100.604;2023-04-03T02:09:16;100972.22;;;37.60;39.71
76095;BME280;64821;13.710;100.604;2023-04-03T02:10:20;100975.91;;;37.64;39.71
76095;BME280;64821;13.710;100.604;2023-04-03T02:11:23;100986.81;;;37.72;39.83
76095;BME280;64821;13.710;100.604;2023-04-03T02:12:27;100968.78;;;37.63;39.48
76095;BME280;64821;13.710;100.604;2023-04-03T02:13:31;100965.31;;;37.66;39.22
76095;BME280;64821;13.710;100.604;2023-04-03T02:14:34;100987.84;;;37.80;39.22
76095;BME280;64821;13.710;100.604;2023-04-03T02:15:38;100979.91;;;37.78;39.16
76095;BME280;64821;13.710;100.604;2023-04-03T02:16:42;100982.38;;;37.84;39.58
76095;BME280;64821;13.710;100.604;2023-04-03T02:17:46;100983.03;;;37.93;39.22
76095;BME280;64821;13.710;100.604;2023-04-03T02:18:51;100974.38;;;37.94;39.72
76095;BME280;64821;13.710;100.604;2023-04-03T02:19:55;100974.50;;;37.98;39.43
76095;BME280;64821;13.710;100.604;2023-04-03T02:20:58;100983.25;;;38.00;38.86
76095;BME280;64821;13.710;100.604;2023-04-03T02:22:02;100980.09;;;38.01;38.06
76095;BME280;64821;13.710;100.604;2023-04-03T02:23:06;100980.09;;;38.01;38.42
76095;BME280;64821;13.710;100.604;2023-04-03T02:24:09;100964.13;;;37.95;38.75
76095;BME280;64821;13.710;100.604;2023-04-03T02:25:13;100968.16;;;37.97;39.22
76095;BME280;64821;13.710;100.604;2023-04-03T02:26:17;100986.53;;;38.05;38.89
76095;BME280;64821;13.710;100.604;2023-04-03T02:52:35;100976.06;;;38.42;34.28
76095;BME280;64821;13.710;100.604;2023-04-03T02:53:39;100975.53;;;38.37;32.13
76095;BME280;64821;13.710;100.604;2023-04-03T02:54:42;100977.66;;;38.43;33.46
76095;BME280;64821;13.710;100.604;2023-04-03T02:55:46;100974.00;;;38.39;31.46
76095;BME280;64821;13.710;100.604;2023-04-03T02:56:50;100980.78;;;38.42;34.04
76095;BME280;64821;13.710;100.604;2023-04-03T02:57:54;100969.72;;;38.42;32.47
76095;BME280;64821;13.710;100.604;2023-04-03T02:58:58;100978.31;;;38.53;33.86
76095;BME280;64821;13.710;100.604;2023-04-03T03:00:01;100974.25;;;38.50;32.50
76095;BME280;64821;13.710;100.604;2023-04-03T03:01:05;100980.38;;;38.56;33.52
76095;BME280;64821;13.710;100.604;2023-04-03T03:02:09;100973.66;;;38.57;31.83
76095;BME280;64821;13.710;100.604;2023-04-03T03:03:13;100972.88;;;38.56;30.86
76095;BME280;64821;13.710;100.604;2023-04-03T03:04:16;100970.16;;;38.60;31.98
76095;BME280;64821;13.710;100.604;2023-04-03T03:05:20;100966.53;;;38.56;30.87
76095;BME280;64821;13.710;100.604;2023-04-03T03:06:24;100977.16;;;38.54;29.41
76095;BME280;64821;13.710;100.604;2023-04-03T03:07:27;100957.66;;;38.50;29.93
76095;BME280;64821;13.710;100.604;2023-04-03T03:08:33;100966.34;;;38.48;31.29
76095;BME280;64821;13.710;100.604;2023-04-03T03:09:37;100958.84;;;38.49;30.95
76095;BME280;64821;13.710;100.604;2023-04-03T03:10:40;100969.75;;;38.58;29.36
76095;BME280;64821;13.710;100.604;2023-04-03T03:11:44;100962.84;;;38.52;30.43
76095;BME280;64821;13.710;100.604;2023-04-03T03:12:48;100972.56;;;38.61;28.91
76095;BME280;64821;13.710;100.604;2023-04-03T03:13:52;100970.72;;;38.65;29.06
76095;BME280;64821;13.710;100.604;2023-04-03T03:14:55;100969.56;;;38.66;30.62
76095;BME280;64821;13.710;100.604;2023-04-03T03:15:59;100970.00;;;38.68;30.76
76095;BME280;64821;13.710;100.604;2023-04-03T03:17:03;100969.25;;;38.71;29.66
76095;BME280;64821;13.710;100.604;2023-04-03T03:18:07;100967.94;;;38.65;30.49
76095;BME280;64821;13.710;100.604;2023-04-03T03:19:10;100969.34;;;38.75;30.87
76095;BME280;64821;13.710;100.604;2023-04-03T03:20:14;100969.44;;;38.78;30.17
76095;BME280;64821;13.710;100.604;2023-04-03T03:21:18;100968.72;;;38.81;29.59
76095;BME280;64821;13.710;100.604;2023-04-03T03:22:21;100964.41;;;38.84;29.64
76095;BME280;64821;13.710;100.604;2023-04-03T03:23:27;100966.75;;;38.82;29.96
76095;BME280;64821;13.710;100.604;2023-04-03T03:24:32;100978.53;;;38.79;28.38
76095;BME280;64821;13.710;100.604;2023-04-03T03:25:38;100969.06;;;38.80;28.92
76095;BME280;64821;13.710;100.604;2023-04-03T03:26:43;100931.34;;;38.56;28.46
76095;BME280;64821;13.710;100.604;2023-04-03T03:27:46;100960.41;;;38.81;28.33
76095;BME280;64821;13.710;100.604;2023-04-03T03:28:50;100976.41;;;38.88;29.22
76095;BME280;64821;13.710;100.604;2023-04-03T03:29:54;100977.16;;;38.88;28.58
76095;BME280;64821;13.710;100.604;2023-04-03T03:30:58;100971.72;;;38.92;29.08
76095;BME280;64821;13.710;100.604;2023-04-03T03:32:02;100963.41;;;38.92;28.87
76095;BME280;64821;13.710;100.604;2023-04-03T03:33:05;100970.06;;;38.88;28.09
76095;BME280;64821;13.710;100.604;2023-04-03T03:34:09;100976.47;;;38.92;27.99
76095;BME280;64821;13.710;100.604;2023-04-03T03:35:13;100964.50;;;38.88;26.86
76095;BME280;64821;13.710;100.604;2023-04-03T03:36:16;100959.16;;;38.79;27.37
76095;BME280;64821;13.710;100.604;2023-04-03T03:37:20;100954.06;;;38.81;25.76
76095;BME280;64821;13.710;100.604;2023-04-03T03:38:24;100951.81;;;38.86;25.06
76095;BME280;64821;13.710;100.604;2023-04-03T03:39:28;100964.50;;;38.88;25.67
76095;BME280;64821;13.710;100.604;2023-04-03T03:40:33;100964.66;;;38.95;24.42
76095;BME280;64821;13.710;100.604;2023-04-03T03:41:37;100961.97;;;38.98;26.65
76095;BME280;64821;13.710;100.604;2023-04-03T03:42:41;100965.28;;;39.04;24.60
76095;BME280;64821;13.710;100.604;2023-04-03T03:43:44;100966.25;;;39.11;27.18
76095;BME280;64821;13.710;100.604;2023-04-03T03:44:48;100971.06;;;39.14;26.63
76095;BME280;64821;13.710;100.604;2023-04-03T03:45:52;100962.75;;;39.14;27.03
76095;BME280;64821;13.710;100.604;2023-04-03T03:46:56;100927.41;;;38.92;27.28
76095;BME280;64821;13.710;100.604;2023-04-03T03:48:00;100920.19;;;38.88;25.24
76095;BME280;64821;13.710;100.604;2023-04-03T03:49:07;100959.97;;;39.14;26.19
76095;BME280;64821;13.710;100.604;2023-04-03T03:50:11;100966.34;;;39.15;26.87
76095;BME280;64821;13.710;100.604;2023-04-03T03:51:15;100964.03;;;39.01;24.02
76095;BME280;64821;13.710;100.604;2023-04-03T03:52:18;100962.31;;;39.12;25.89
76095;BME280;64821;13.710;100.604;2023-04-03T03:53:22;100958.81;;;39.15;23.71
76095;BME280;64821;13.710;100.604;2023-04-03T03:54:26;100958.03;;;39.15;24.32
76095;BME280;64821;13.710;100.604;2023-04-03T03:55:29;100956.31;;;39.10;25.87
76095;BME280;64821;13.710;100.604;2023-04-03T03:56:35;100962.81;;;39.18;25.40
76095;BME280;64821;13.710;100.604;2023-04-03T03:57:38;100955.97;;;39.12;23.07
76095;BME280;64821;13.710;100.604;2023-04-03T03:58:42;100961.72;;;39.22;22.55
76095;BME280;64821;13.710;100.604;2023-04-03T03:59:46;100962.97;;;39.25;22.99
76095;BME280;64821;13.710;100.604;2023-04-03T04:00:49;100949.56;;;39.27;23.35
76095;BME280;64821;13.710;100.604;2023-04-03T04:01:53;100958.31;;;39.29;22.87
76095;BME280;64821;13.710;100.604;2023-04-03T04:02:57;100953.66;;;39.33;23.19
76095;BME280;64821;13.710;100.604;2023-04-03T04:04:01;100959.63;;;39.35;21.57
76095;BME280;64821;13.710;100.604;2023-04-03T04:05:08;100951.38;;;39.39;22.16
76095;BME280;64821;13.710;100.604;2023-04-03T04:06:11;100949.88;;;39.41;22.94
76095;BME280;64821;13.710;100.604;2023-04-03T04:07:15;100947.47;;;39.40;21.18
76095;BME280;64821;13.710;100.604;2023-04-03T04:08:19;100951.56;;;39.46;21.93
76095;BME280;64821;13.710;100.604;2023-04-03T04:09:22;100944.84;;;39.47;21.52
76095;BME280;64821;13.710;100.604;2023-04-03T04:10:26;100942.94;;;39.51;22.67
76095;BME280;64821;13.710;100.604;2023-04-03T04:11:29;100942.13;;;39.50;23.12
76095;BME280;64821;13.710;100.604;2023-04-03T04:12:35;100949.72;;;39.53;23.06
76095;BME280;64821;13.710;100.604;2023-04-03T04:13:39;100945.34;;;39.52;23.24
76095;BME280;64821;13.710;100.604;2023-04-03T04:14:43;100938.91;;;39.48;22.86
76095;BME280;64821;13.710;100.604;2023-04-03T04:15:46;100934.53;;;39.47;22.85
76095;BME280;64821;13.710;100.604;2023-04-03T04:16:50;100943.06;;;39.58;23.72
76095;BME280;64821;13.710;100.604;2023-04-03T04:17:54;100938.41;;;39.62;23.09
76095;BME280;64821;13.710;100.604;2023-04-03T04:18:57;100939.34;;;39.70;23.54
76095;BME280;64821;13.710;100.604;2023-04-03T04:20:01;100937.09;;;39.75;23.81
76095;BME280;64821;13.710;100.604;2023-04-03T04:21:05;100928.38;;;39.77;22.59
76095;BME280;64821;13.710;100.604;2023-04-03T04:22:09;100937.56;;;39.81;23.51
76095;BME280;64821;13.710;100.604;2023-04-03T04:23:12;100922.47;;;39.78;22.79
76095;BME280;64821;13.710;100.604;2023-04-03T04:24:16;100921.38;;;39.83;23.91
76095;BME280;64821;13.710;100.604;2023-04-03T04:25:20;100913.50;;;39.85;22.76
76095;BME280;64821;13.710;100.604;2023-04-03T04:26:23;100919.31;;;39.80;22.23
76095;BME280;64821;13.710;100.604;2023-04-03T04:27:27;100911.25;;;39.71;23.30
76095;BME280;64821;13.710;100.604;2023-04-03T04:28:32;100923.84;;;39.88;22.47
76095;BME280;64821;13.710;100.604;2023-04-03T04:29:36;100923.47;;;39.89;22.70
76095;BME280;64821;13.710;100.604;2023-04-03T04:30:40;100924.34;;;39.93;23.41
76095;BME280;64821;13.710;100.604;2023-04-03T04:31:44;100919.53;;;39.90;22.01
76095;BME280;64821;13.710;100.604;2023-04-03T04:32:47;100924.78;;;39.96;23.13
76095;BME280;64821;13.710;100.604;2023-04-03T04:33:51;100911.34;;;39.78;22.12
76095;BME280;64821;13.710;100.604;2023-04-03T04:34:55;100921.03;;;39.84;22.62
76095;BME280;64821;13.710;100.604;2023-04-03T04:35:58;100905.66;;;39.90;22.53
76095;BME280;64821;13.710;100.604;2023-04-03T04:37:02;100913.25;;;39.93;22.45
76095;BME280;64821;13.710;100.604;2023-04-03T04:38:06;100907.34;;;39.95;22.00
76095;BME280;64821;13.710;100.604;2023-04-03T04:39:10;100909.38;;;39.98;23.24
76095;BME280;64821;13.710;100.604;2023-04-03T04:40:14;100904.25;;;40.00;22.47
76095;BME280;64821;13.710;100.604;2023-04-03T04:41:17;100898.50;;;39.89;22.34
76095;BME280;64821;13.710;100.604;2023-04-03T04:42:21;100892.28;;;39.96;21.95
76095;BME280;64821;13.710;100.604;2023-04-03T04:43:25;100897.78;;;39.92;22.34
76095;BME280;64821;13.710;100.604;2023-04-03T04:44:30;100886.06;;;40.03;22.87
76095;BME280;64821;13.710;100.604;2023-04-03T04:45:34;100883.28;;;40.03;23.06
76095;BME280;64821;13.710;100.604;2023-04-03T04:46:38;100888.66;;;40.15;22.71
76095;BME280;64821;13.710;100.604;2023-04-03T04:47:42;100885.91;;;40.18;21.97
76095;BME280;64821;13.710;100.604;2023-04-03T04:48:45;100855.59;;;40.06;23.17
76095;BME280;64821;13.710;100.604;2023-04-03T04:49:52;100888.09;;;40.28;22.42
76095;BME280;64821;13.710;100.604;2023-04-03T04:50:55;100882.97;;;40.30;22.45
76095;BME280;64821;13.710;100.604;2023-04-03T04:51:59;100881.00;;;40.31;22.97
76095;BME280;64821;13.710;100.604;2023-04-03T04:53:03;100874.63;;;40.30;23.71
76095;BME280;64821;13.710;100.604;2023-04-03T04:54:06;100873.78;;;40.26;22.45
76095;BME280;64821;13.710;100.604;2023-04-03T04:55:10;100871.50;;;40.32;22.44
76095;BME280;64821;13.710;100.604;2023-04-03T04:56:14;100871.88;;;40.30;22.22
76095;BME280;64821;13.710;100.604;2023-04-03T04:57:17;100872.34;;;40.36;22.36
76095;BME280;64821;13.710;100.604;2023-04-03T04:58:21;100869.19;;;40.38;22.42
76095;BME280;64821;13.710;100.604;2023-04-03T04:59:25;100865.94;;;40.32;22.05
76095;BME280;64821;13.710;100.604;2023-04-03T05:00:30;100860.44;;;40.36;22.44
76095;BME280;64821;13.710;100.604;2023-04-03T05:01:34;100857.00;;;40.46;22.38
76095;BME280;64821;13.710;100.604;2023-04-03T05:02:38;100854.59;;;40.18;21.82
76095;BME280;64821;13.710;100.604;2023-04-03T05:03:42;100857.81;;;40.46;22.54
76095;BME280;64821;13.710;100.604;2023-04-03T05:04:45;100855.47;;;40.48;23.01
76095;BME280;64821;13.710;100.604;2023-04-03T05:05:49;100849.53;;;40.50;21.86
76095;BME280;64821;13.710;100.604;2023-04-03T05:06:53;100846.06;;;40.56;22.99
76095;BME280;64821;13.710;100.604;2023-04-03T05:07:56;100845.38;;;40.63;23.40
76095;BME280;64821;13.710;100.604;2023-04-03T05:09:00;100835.88;;;40.67;22.98
76095;BME280;64821;13.710;100.604;2023-04-03T05:10:05;100831.22;;;40.72;22.82
76095;BME280;64821;13.710;100.604;2023-04-03T05:11:09;100837.16;;;40.70;22.72
76095;BME280;64821;13.710;100.604;2023-04-03T05:12:13;100836.00;;;40.75;22.98
76095;BME280;64821;13.710;100.604;2023-04-03T05:13:16;100824.13;;;40.74;22.18
76095;BME280;64821;13.710;100.604;2023-04-03T05:14:20;100821.72;;;40.73;22.26
76095;BME280;64821;13.710;100.604;2023-04-03T05:15:24;100823.81;;;40.83;23.33
76095;BME280;64821;13.710;100.604;2023-04-03T05:16:29;100828.97;;;40.81;22.68
76095;BME280;64821;13.710;100.604;2023-04-03T05:17:33;100822.59;;;40.80;22.84
76095;BME280;64821;13.710;100.604;2023-04-03T05:18:37;100825.38;;;40.80;22.86
76095;BME280;64821;13.710;100.604;2023-04-03T05:19:40;100824.19;;;40.81;23.06
76095;BME280;64821;13.710;100.604;2023-04-03T05:20:44;100822.59;;;40.80;22.90
76095;BME280;64821;13.710;100.604;2023-04-03T05:21:48;100802.94;;;40.66;23.10
76095;BME280;64821;13.710;100.604;2023-04-03T05:22:52;100817.78;;;40.77;23.27
76095;BME280;64821;13.710;100.604;2023-04-03T05:23:55;100814.63;;;40.79;23.81
76095;BME280;64821;13.710;100.604;2023-04-03T05:24:59;100809.94;;;40.83;22.94
76095;BME280;64821;13.710;100.604;2023-04-03T05:26:03;100807.97;;;40.87;22.73
76095;BME280;64821;13.710;100.604;2023-04-03T05:27:07;100813.50;;;40.83;23.61
76095;BME280;64821;13.710;100.604;2023-04-03T05:28:11;100804.03;;;40.88;23.45
76095;BME280;64821;13.710;100.604;2023-04-03T05:29:14;100804.03;;;40.88;23.26
76095;BME280;64821;13.710;100.604;2023-04-03T05:30:18;100804.91;;;40.95;22.53
76095;BME280;64821;13.710;100.604;2023-04-03T05:31:22;100800.03;;;40.85;23.38
76095;BME280;64821;13.710;100.604;2023-04-03T05:32:28;100797.84;;;41.01;23.03
76095;BME280;64821;13.710;100.604;2023-04-03T05:33:31;100785.34;;;40.85;22.37
76095;BME280;64821;13.710;100.604;2023-04-03T05:34:35;100792.25;;;40.98;22.77
76095;BME280;64821;13.710;100.604;2023-04-03T05:35:39;100777.97;;;40.99;23.30
76095;BME280;64821;13.710;100.604;2023-04-03T05:36:42;100782.50;;;41.11;23.47
76095;BME280;64821;13.710;100.604;2023-04-03T05:37:46;100783.81;;;41.24;23.11
76095;BME280;64821;13.710;100.604;2023-04-03T05:38:50;100775.94;;;41.33;22.96
76095;BME280;64821;13.710;100.604;2023-04-03T05:39:54;100780.72;;;41.33;23.77
76095;BME280;64821;13.710;100.604;2023-04-03T05:40:58;100781.50;;;41.33;23.86
76095;BME280;64821;13.710;100.604;2023-04-03T05:42:01;100779.88;;;41.29;25.23
76095;BME280;64821;13.710;100.604;2023-04-03T05:43:05;100767.59;;;41.33;25.63
76095;BME280;64821;13.710;100.604;2023-04-03T05:44:09;100756.41;;;41.23;26.58
76095;BME280;64821;13.710;100.604;2023-04-03T05:45:13;100771.53;;;41.29;25.81
76095;BME280;64821;13.710;100.604;2023-04-03T05:46:18;100738.38;;;41.10;26.01
76095;BME280;64821;13.710;100.604;2023-04-03T05:47:22;100758.06;;;41.31;26.10
76095;BME280;64821;13.710;100.604;2023-04-03T05:48:27;100754.09;;;41.32;25.93
76095;BME280;64821;13.710;100.604;2023-04-03T05:49:31;100749.69;;;41.27;26.24
76095;BME280;64821;13.710;100.604;2023-04-03T05:50:35;100756.47;;;41.30;25.72
76095;BME280;64821;13.710;100.604;2023-04-03T05:51:40;100758.06;;;41.31;26.40
76095;BME280;64821;13.710;100.604;2023-04-03T05:52:45;100749.34;;;41.32;25.79
76095;BME280;64821;13.710;100.604;2023-04-03T05:53:55;100752.47;;;41.27;25.93